createdAt,value
2022-10-20T00:01:25.657Z,1.90
2022-10-20T00:03:58.620Z,1.80
2022-10-20T00:06:31.591Z,1.90
2022-10-20T00:09:02.362Z,2.07
2022-10-20T00:11:32.881Z,2.07
2022-10-20T00:14:01.438Z,2.20
2022-10-20T00:16:32.028Z,1.80
2022-10-20T00:19:02.477Z,2.27
2022-10-20T00:21:29.743Z,1.97
2022-10-20T00:23:59.690Z,1.93
2022-10-20T00:26:28.082Z,1.50
2022-10-20T00:28:56.021Z,2.00
2022-10-20T00:31:26.174Z,2.40
2022-10-20T00:33:53.585Z,2.10
2022-10-20T00:36:26.819Z,2.20
2022-10-20T00:38:59.635Z,2.27
2022-10-20T00:41:28.565Z,1.90
2022-10-20T00:44:02.368Z,2.63
2022-10-20T00:46:41.955Z,2.73
2022-10-20T00:49:23.128Z,2.30
2022-10-20T00:51:54.831Z,2.60
2022-10-20T00:54:27.315Z,2.43
2022-10-20T00:56:55.937Z,2.40
2022-10-20T00:59:27.951Z,2.60
2022-10-20T01:01:55.639Z,3.00
2022-10-20T01:04:25.746Z,2.27
2022-10-20T01:06:52.603Z,2.30
2022-10-20T01:09:24.052Z,2.10
2022-10-20T01:12:19.263Z,2.80
2022-10-20T01:14:59.624Z,2.40
2022-10-20T01:17:41.133Z,2.17
2022-10-20T01:20:25.647Z,2.27
2022-10-20T01:23:31.600Z,2.33
2022-10-20T01:26:22.567Z,2.47
2022-10-20T01:29:19.686Z,2.40
2022-10-20T01:32:24.237Z,2.53
2022-10-20T01:35:21.551Z,2.60
2022-10-20T01:38:02.419Z,2.60
2022-10-20T01:40:51.174Z,3.10
2022-10-20T01:43:26.612Z,2.50
2022-10-20T01:45:54.534Z,2.77
2022-10-20T01:48:25.962Z,2.90
2022-10-20T01:50:53.301Z,3.03
2022-10-20T01:53:22.838Z,2.90
2022-10-20T01:55:55.408Z,3.00
2022-10-20T01:58:56.130Z,3.67
2022-10-20T02:01:34.292Z,3.03
2022-10-20T02:04:07.419Z,3.40
2022-10-20T02:07:01.904Z,3.37
2022-10-20T02:09:44.353Z,3.13
2022-10-20T02:12:21.570Z,3.20
2022-10-20T02:14:51.948Z,3.70
2022-10-20T02:17:21.217Z,3.17
2022-10-20T02:19:51.987Z,3.63
2022-10-20T02:22:20.575Z,3.37
2022-10-20T02:24:50.658Z,3.90
2022-10-20T02:27:28.395Z,3.37
2022-10-20T02:30:11.232Z,2.90
2022-10-20T02:32:40.960Z,3.80
2022-10-20T02:35:21.101Z,3.57
2022-10-20T02:37:48.306Z,3.40
2022-10-20T02:40:18.442Z,3.67
2022-10-20T02:42:45.302Z,3.80
2022-10-20T02:45:14.744Z,3.33
2022-10-20T02:47:41.987Z,3.67
2022-10-20T02:50:12.018Z,3.70
2022-10-20T02:52:43.554Z,3.87
2022-10-20T02:55:15.385Z,4.10
2022-10-20T02:57:42.303Z,3.83
2022-10-20T03:00:10.075Z,3.90
2022-10-20T03:02:36.936Z,4.10
2022-10-20T03:05:04.039Z,4.10
2022-10-20T03:07:33.419Z,4.07
2022-10-20T03:10:00.423Z,3.53
2022-10-20T03:12:32.183Z,3.20
2022-10-20T03:14:59.227Z,3.67
2022-10-20T03:17:28.553Z,3.70
2022-10-20T03:19:55.368Z,4.20
2022-10-20T03:22:22.304Z,4.40
2022-10-20T03:24:49.080Z,3.57
2022-10-20T03:27:18.441Z,3.60
2022-10-20T03:29:47.801Z,3.60
2022-10-20T03:32:17.044Z,3.23
2022-10-20T03:34:43.860Z,3.90
2022-10-20T03:37:13.218Z,3.87
2022-10-20T03:39:40.105Z,3.07
2022-10-20T03:42:12.042Z,3.57
2022-10-20T03:44:45.064Z,4.40
2022-10-20T03:47:13.427Z,3.60
2022-10-20T03:49:40.883Z,3.60
2022-10-20T03:52:10.285Z,3.67
2022-10-20T03:54:37.156Z,3.60
2022-10-20T03:57:06.947Z,3.90
2022-10-20T03:59:34.889Z,4.30
2022-10-20T04:02:02.036Z,4.53
2022-10-20T04:04:33.774Z,3.97
2022-10-20T04:07:00.590Z,4.13
2022-10-20T04:09:29.928Z,3.93
2022-10-20T04:12:01.327Z,4.50
2022-10-20T04:14:28.279Z,5.17
2022-10-20T04:16:57.165Z,4.50
2022-10-20T04:19:26.473Z,4.80
2022-10-20T04:21:53.269Z,4.73
2022-10-20T04:24:21.894Z,4.80
2022-10-20T04:26:51.268Z,4.60
2022-10-20T04:29:20.457Z,4.90
2022-10-20T04:31:49.173Z,5.80
2022-10-20T04:34:16.230Z,5.10
2022-10-20T04:36:43.041Z,5.50
2022-10-20T04:39:14.525Z,5.67
2022-10-20T04:41:41.576Z,5.30
2022-10-20T04:44:10.740Z,5.30
2022-10-20T04:46:37.833Z,6.10
2022-10-20T04:49:10.023Z,6.30
2022-10-20T04:51:39.051Z,6.00
2022-10-20T04:56:32.632Z,6.83
2022-10-20T04:59:07.320Z,6.80
2022-10-20T05:01:36.527Z,6.80
2022-10-20T05:04:03.399Z,6.90
2022-10-20T05:06:33.901Z,6.17
2022-10-20T05:09:05.177Z,4.83
2022-10-20T05:11:38.212Z,7.00
2022-10-20T05:14:08.112Z,5.70
2022-10-20T05:16:38.092Z,5.10
2022-10-20T05:19:07.420Z,5.80
2022-10-20T05:21:36.724Z,5.63
2022-10-20T05:24:05.680Z,6.57
2022-10-20T05:26:37.409Z,8.07
2022-10-20T05:29:08.747Z,8.90
2022-10-20T05:31:42.079Z,10.63
2022-10-20T05:34:12.959Z,11.13
2022-10-20T05:36:39.887Z,13.57
2022-10-20T05:39:06.737Z,11.17
2022-10-20T05:41:37.835Z,11.63
2022-10-20T05:44:08.953Z,9.00
2022-10-20T05:46:45.869Z,8.67
2022-10-20T05:49:17.600Z,7.67
2022-10-20T05:51:46.775Z,6.77
2022-10-20T05:54:16.839Z,7.70
2022-10-20T05:56:47.027Z,8.07
2022-10-20T05:59:14.272Z,7.30
2022-10-20T06:01:50.007Z,7.13
2022-10-20T06:04:28.198Z,7.27
2022-10-20T06:06:56.219Z,7.00
2022-10-20T06:09:40.246Z,7.30
2022-10-20T06:14:38.100Z,8.03
2022-10-20T06:17:10.597Z,7.57
2022-10-20T06:19:43.320Z,8.40
2022-10-20T06:22:10.647Z,8.53
2022-10-20T06:24:39.846Z,7.03
2022-10-20T06:27:08.014Z,7.70
2022-10-20T06:29:35.280Z,7.83
2022-10-20T06:32:02.380Z,7.93
2022-10-20T06:34:29.576Z,8.23
2022-10-20T06:36:59.021Z,7.00
2022-10-20T06:39:30.653Z,7.33
2022-10-20T06:41:59.898Z,7.00
2022-10-20T06:44:29.855Z,6.47
2022-10-20T06:46:57.157Z,5.87
2022-10-20T06:49:26.903Z,6.43
2022-10-20T06:51:54.168Z,5.47
2022-10-20T06:54:21.507Z,5.67
2022-10-20T06:56:48.910Z,5.20
2022-10-20T06:59:16.148Z,5.23
2022-10-20T07:01:43.625Z,4.50
2022-10-20T07:04:18.084Z,5.40
2022-10-20T07:06:47.231Z,4.40
2022-10-20T07:09:21.076Z,5.27
2022-10-20T07:11:52.805Z,5.97
2022-10-20T07:14:21.732Z,5.30
2022-10-20T07:16:58.754Z,5.07
2022-10-20T07:19:28.598Z,5.10
2022-10-20T07:21:56.049Z,5.23
2022-10-20T07:24:29.902Z,4.13
2022-10-20T07:27:20.070Z,4.27
2022-10-20T07:29:53.204Z,4.43
2022-10-20T07:32:23.023Z,4.60
2022-10-20T07:34:52.765Z,4.40
2022-10-20T07:37:20.053Z,3.83
2022-10-20T07:39:47.295Z,4.70
2022-10-20T07:42:14.760Z,3.83
2022-10-20T07:44:44.820Z,4.00
2022-10-20T07:47:12.090Z,4.33
2022-10-20T07:49:44.082Z,3.63
2022-10-20T07:52:16.756Z,4.23
2022-10-20T07:54:46.808Z,3.60
2022-10-20T07:57:14.020Z,3.37
2022-10-20T07:59:41.286Z,4.10
2022-10-20T08:02:20.417Z,3.80
2022-10-20T08:04:50.619Z,3.33
2022-10-20T08:07:28.099Z,3.00
2022-10-20T08:10:02.207Z,2.70
2022-10-20T08:12:31.526Z,3.10
2022-10-20T08:14:59.376Z,3.03
2022-10-20T08:17:30.344Z,2.40
2022-10-20T08:22:38.866Z,3.03
2022-10-20T08:25:14.096Z,2.50
2022-10-20T08:27:45.899Z,2.80
2022-10-20T08:30:23.753Z,2.70
2022-10-20T08:32:53.183Z,2.90
2022-10-20T08:35:23.076Z,3.20
2022-10-20T08:37:50.951Z,2.73
2022-10-20T08:40:24.855Z,2.90
2022-10-20T08:42:55.188Z,2.73
2022-10-20T08:45:38.047Z,2.30
2022-10-20T08:48:18.645Z,2.50
2022-10-20T08:50:48.224Z,2.87
2022-10-20T08:53:15.996Z,3.00
2022-10-20T08:55:59.630Z,2.33
2022-10-20T08:58:29.468Z,2.47
2022-10-20T09:01:00.081Z,2.70
2022-10-20T09:03:37.507Z,2.23
2022-10-20T09:06:18.201Z,3.00
2022-10-20T09:08:52.042Z,3.30
2022-10-20T09:11:26.057Z,2.80
2022-10-20T09:13:54.894Z,2.73
2022-10-20T09:16:58.779Z,2.10
2022-10-20T09:19:25.787Z,2.80
2022-10-20T09:22:04.197Z,2.50
2022-10-20T09:24:37.819Z,2.43
2022-10-20T09:27:33.103Z,2.60
2022-10-20T09:30:29.544Z,2.57
2022-10-20T09:32:56.968Z,3.10
2022-10-20T09:35:32.246Z,2.90
2022-10-20T09:38:27.828Z,3.30
2022-10-20T09:41:29.062Z,2.63
2022-10-20T09:44:09.281Z,3.10
2022-10-20T09:46:48.900Z,2.53
2022-10-20T09:49:30.542Z,2.87
2022-10-20T09:52:02.463Z,3.20
2022-10-20T09:54:31.879Z,3.10
2022-10-20T09:57:08.493Z,3.90
2022-10-20T09:59:42.818Z,3.47
2022-10-20T10:02:15.667Z,3.30
2022-10-20T10:04:47.047Z,3.80
2022-10-20T10:07:25.877Z,3.40
2022-10-20T10:10:25.567Z,3.50
2022-10-20T10:13:01.036Z,4.70
2022-10-20T10:15:37.075Z,3.80
2022-10-20T10:18:23.855Z,4.00
2022-10-20T10:21:10.589Z,3.73
2022-10-20T10:23:56.680Z,3.70
2022-10-20T10:26:54.058Z,3.90
2022-10-20T10:29:41.680Z,4.50
2022-10-20T10:32:19.305Z,3.47
2022-10-20T10:35:08.145Z,3.90
2022-10-20T10:37:37.432Z,3.70
2022-10-20T10:40:18.408Z,4.10
2022-10-20T10:43:03.641Z,4.00
2022-10-20T10:45:56.827Z,3.70
2022-10-20T10:48:41.489Z,3.93
2022-10-20T10:51:44.199Z,3.90
2022-10-20T10:54:19.796Z,4.27
2022-10-20T10:56:55.579Z,4.30
2022-10-20T10:59:27.501Z,4.30
2022-10-20T11:02:39.994Z,4.60
2022-10-20T11:05:52.230Z,4.37
2022-10-20T11:08:34.120Z,4.20
2022-10-20T11:11:24.708Z,4.70
2022-10-20T11:14:44.087Z,4.53
2022-10-20T11:18:17.653Z,4.30
2022-10-20T11:21:23.268Z,5.00
2022-10-20T11:24:16.957Z,4.97
2022-10-20T11:26:47.664Z,4.20
2022-10-20T11:29:40.755Z,4.90
2022-10-20T11:32:30.020Z,4.90
2022-10-20T11:35:12.463Z,4.73
2022-10-20T11:38:26.726Z,4.43
2022-10-20T11:41:22.723Z,4.40
2022-10-20T11:44:26.822Z,4.50
2022-10-20T11:47:09.314Z,4.43
2022-10-20T11:49:39.984Z,5.20
2022-10-20T11:52:24.332Z,4.27
2022-10-20T11:55:27.254Z,4.83
2022-10-20T11:58:22.949Z,4.80
2022-10-20T12:01:20.971Z,4.40
2022-10-20T12:04:27.939Z,4.53
2022-10-20T12:07:39.108Z,4.10
2022-10-20T12:10:36.570Z,4.73
2022-10-20T12:13:46.126Z,4.60
2022-10-20T12:16:13.054Z,4.30
2022-10-20T12:18:39.960Z,4.40
2022-10-20T12:21:10.809Z,4.20
2022-10-20T12:23:45.780Z,4.10
2022-10-20T12:26:33.045Z,4.10
2022-10-20T12:29:31.875Z,4.70
2022-10-20T12:32:57.589Z,4.20
2022-10-20T12:35:24.311Z,4.80
2022-10-20T12:38:04.554Z,3.70
2022-10-20T12:40:41.121Z,4.10
2022-10-20T12:43:29.530Z,3.47
2022-10-20T12:46:15.858Z,3.63
2022-10-20T12:48:46.108Z,4.17
2022-10-20T12:51:29.597Z,3.87
2022-10-20T12:54:40.555Z,4.23
2022-10-20T12:57:37.074Z,3.97
2022-10-20T13:00:32.654Z,3.60
2022-10-20T13:03:00.224Z,3.60
2022-10-20T13:05:50.904Z,3.67
2022-10-20T13:08:26.532Z,3.73
2022-10-20T13:10:56.183Z,3.67
2022-10-20T13:13:22.939Z,3.60
2022-10-20T13:15:54.576Z,2.83
2022-10-20T13:18:34.131Z,3.40
2022-10-20T13:21:38.575Z,3.37
2022-10-20T13:24:31.112Z,3.87
2022-10-20T13:27:03.399Z,3.87
2022-10-20T13:29:46.712Z,4.37
2022-10-20T13:32:24.553Z,2.93
2022-10-20T13:35:12.825Z,3.80
2022-10-20T13:38:02.750Z,3.70
2022-10-20T13:41:06.187Z,3.57
2022-10-20T13:44:04.539Z,3.10
2022-10-20T13:47:01.213Z,3.70
2022-10-20T13:50:06.223Z,3.70
2022-10-20T13:52:40.523Z,3.53
2022-10-20T13:55:23.086Z,3.90
2022-10-20T13:58:07.877Z,3.50
2022-10-20T14:00:38.155Z,4.00
2022-10-20T14:03:25.235Z,4.17
2022-10-20T14:05:54.740Z,4.47
2022-10-20T14:08:23.502Z,5.27
2022-10-20T14:11:04.961Z,5.47
2022-10-20T14:13:35.957Z,5.20
2022-10-20T14:16:07.198Z,6.00
2022-10-20T14:18:40.053Z,5.97
2022-10-20T14:21:20.820Z,5.70
2022-10-20T14:23:50.754Z,5.87
2022-10-20T14:26:21.311Z,6.43
2022-10-20T14:28:51.128Z,5.50
2022-10-20T14:31:23.276Z,5.73
2022-10-20T14:33:55.547Z,5.73
2022-10-20T14:36:32.534Z,6.67
2022-10-20T14:39:01.027Z,6.73
2022-10-20T14:41:40.417Z,6.90
2022-10-20T14:44:17.370Z,7.03
2022-10-20T14:47:06.765Z,7.60
2022-10-20T14:49:39.319Z,7.20
2022-10-20T14:52:21.561Z,7.10
2022-10-20T14:54:51.122Z,8.20
2022-10-20T14:57:17.835Z,8.03
2022-10-20T15:00:32.442Z,7.27
2022-10-20T15:03:06.951Z,6.33
2022-10-20T15:05:43.535Z,6.97
2022-10-20T15:08:21.924Z,6.77
2022-10-20T15:10:48.965Z,7.10
2022-10-20T15:13:36.264Z,7.40
2022-10-20T15:16:04.598Z,6.50
2022-10-20T15:18:37.780Z,6.03
2022-10-20T15:21:07.917Z,6.20
2022-10-20T15:23:34.795Z,6.63
2022-10-20T15:26:06.554Z,7.43
2022-10-20T15:28:50.054Z,6.40
2022-10-20T15:31:22.372Z,6.20
2022-10-20T15:33:51.970Z,6.00
2022-10-20T15:36:29.554Z,6.30
2022-10-20T15:38:57.007Z,6.53
2022-10-20T15:41:27.972Z,6.63
2022-10-20T15:44:03.985Z,6.43
2022-10-20T15:46:35.440Z,7.27
2022-10-20T15:49:02.232Z,6.27
2022-10-20T15:51:33.820Z,6.27
2022-10-20T15:54:06.236Z,5.80
2022-10-20T15:56:35.162Z,6.83
2022-10-20T15:59:02.637Z,6.30
2022-10-20T16:01:31.937Z,5.27
2022-10-20T16:04:16.810Z,7.20
2022-10-20T16:06:43.773Z,5.80
2022-10-20T16:09:15.786Z,6.33
2022-10-20T16:11:51.118Z,5.57
2022-10-20T16:14:20.903Z,5.30
2022-10-20T16:16:53.687Z,6.23
2022-10-20T16:19:27.621Z,5.77
2022-10-20T16:21:54.417Z,5.77
2022-10-20T16:24:23.943Z,6.17
2022-10-20T16:26:52.710Z,6.93
2022-10-20T16:29:22.516Z,6.40
2022-10-20T16:31:51.007Z,5.90
2022-10-20T16:34:20.396Z,6.43
2022-10-20T16:36:49.844Z,6.37
2022-10-20T16:39:19.716Z,5.90
2022-10-20T16:41:47.095Z,7.20
2022-10-20T16:44:17.046Z,6.43
2022-10-20T16:46:44.017Z,6.17
2022-10-20T16:49:11.030Z,6.30
2022-10-20T16:51:40.306Z,5.87
2022-10-20T16:54:10.336Z,5.77
2022-10-20T16:56:37.196Z,5.93
2022-10-20T16:59:04.065Z,5.77
2022-10-20T17:01:34.052Z,6.20
2022-10-20T17:04:03.876Z,5.70
2022-10-20T17:06:33.034Z,5.83
2022-10-20T17:09:00.169Z,5.37
2022-10-20T17:11:30.362Z,5.73
2022-10-20T17:13:58.516Z,5.50
2022-10-20T17:16:38.164Z,6.60
2022-10-20T17:19:05.856Z,5.80
2022-10-20T17:21:33.929Z,5.87
2022-10-20T17:24:01.289Z,6.23
2022-10-20T17:26:30.842Z,5.30
2022-10-20T17:29:02.417Z,5.00
2022-10-20T17:31:31.875Z,5.63
2022-10-20T17:33:59.750Z,5.43
2022-10-20T17:36:30.014Z,5.27
2022-10-20T17:39:11.008Z,5.30
2022-10-20T17:41:37.865Z,5.87
2022-10-20T17:44:08.392Z,5.20
2022-10-20T17:46:38.838Z,5.30
2022-10-20T17:49:08.602Z,5.33
2022-10-20T17:51:41.067Z,5.87
2022-10-20T17:54:12.663Z,5.30
2022-10-20T17:56:44.402Z,5.57
2022-10-20T18:01:43.089Z,5.90
2022-10-20T18:04:20.547Z,5.10
2022-10-20T18:06:47.839Z,5.17
2022-10-20T18:09:19.027Z,5.50
2022-10-20T18:11:50.991Z,5.37
2022-10-20T18:14:20.554Z,6.20
2022-10-20T18:16:49.954Z,5.87
2022-10-20T18:19:21.792Z,5.00
2022-10-20T18:21:51.358Z,6.30
2022-10-20T18:24:18.782Z,6.53
2022-10-20T18:26:47.598Z,5.67
2022-10-20T18:29:16.676Z,5.80
2022-10-20T18:31:46.058Z,6.17
2022-10-20T18:34:18.524Z,4.80
2022-10-20T18:36:46.310Z,5.70
2022-10-20T18:39:14.407Z,5.53
2022-10-20T18:41:49.801Z,5.67
2022-10-20T18:44:20.276Z,5.67
2022-10-20T18:46:47.952Z,5.40
2022-10-20T18:49:21.814Z,5.30
2022-10-20T18:51:48.696Z,6.07
2022-10-20T18:54:18.858Z,6.10
2022-10-20T18:56:46.221Z,5.80
2022-10-20T18:59:16.270Z,5.30
2022-10-20T19:01:43.740Z,5.70
2022-10-20T19:04:11.646Z,5.93
2022-10-20T19:06:47.931Z,5.90
2022-10-20T19:09:21.083Z,5.57
2022-10-20T19:14:22.906Z,5.60
2022-10-20T19:16:50.194Z,5.50
2022-10-20T19:19:17.532Z,6.07
2022-10-20T19:21:46.947Z,5.93
2022-10-20T19:24:25.462Z,5.60
2022-10-20T19:27:25.022Z,6.13
2022-10-20T19:29:48.853Z,5.87
2022-10-20T19:32:18.476Z,5.60
2022-10-20T19:34:45.367Z,6.10
2022-10-20T19:37:12.262Z,5.80
2022-10-20T19:39:42.805Z,6.47
2022-10-20T19:42:13.050Z,5.73
2022-10-20T19:44:40.284Z,6.20
2022-10-20T19:47:10.053Z,6.80
2022-10-20T19:49:40.910Z,6.40
2022-10-20T19:52:08.245Z,6.37
2022-10-20T19:54:35.183Z,7.07
2022-10-20T19:57:04.421Z,6.20
2022-10-20T19:59:31.306Z,7.30
2022-10-20T20:01:58.343Z,6.40
2022-10-20T20:04:25.213Z,7.60
2022-10-20T20:06:58.393Z,7.03
2022-10-20T20:09:29.894Z,6.50
2022-10-20T20:11:56.862Z,6.63
2022-10-20T20:14:23.743Z,7.07
2022-10-20T20:16:50.644Z,7.20
2022-10-20T20:19:17.864Z,7.63
2022-10-20T20:21:45.892Z,7.90
2022-10-20T20:24:16.100Z,7.33
2022-10-20T20:26:44.829Z,7.90
2022-10-20T20:29:11.901Z,8.60
2022-10-20T20:31:41.251Z,7.73
2022-10-20T20:34:08.298Z,7.73
2022-10-20T20:36:35.175Z,7.53
2022-10-20T20:39:07.155Z,8.17
2022-10-20T20:41:37.295Z,7.73
2022-10-20T20:44:08.710Z,7.73
2022-10-20T20:46:36.310Z,8.03
2022-10-20T20:49:08.287Z,8.37
2022-10-20T20:51:35.354Z,9.00
2022-10-20T20:54:04.759Z,8.33
2022-10-20T20:56:32.222Z,8.53
2022-10-20T20:58:59.863Z,8.63
2022-10-20T21:01:31.699Z,8.00
2022-10-20T21:04:04.580Z,8.07
2022-10-20T21:07:00.062Z,8.20
2022-10-20T21:09:21.991Z,8.50
2022-10-20T21:11:52.011Z,8.60
2022-10-20T21:14:19.488Z,7.80
2022-10-20T21:16:46.546Z,8.17
2022-10-20T21:19:13.471Z,7.73
2022-10-20T21:22:05.113Z,7.63
2022-10-20T21:24:34.383Z,8.27
2022-10-20T21:27:03.557Z,8.73
2022-10-20T21:29:30.503Z,9.77
2022-10-20T21:31:59.860Z,9.17
2022-10-20T21:34:29.359Z,9.17
2022-10-20T21:36:58.665Z,8.70
2022-10-20T21:39:28.139Z,8.47
2022-10-20T21:41:57.800Z,8.90
2022-10-20T21:44:24.641Z,9.53
2022-10-20T21:46:51.991Z,9.63
2022-10-20T21:49:21.629Z,8.97
2022-10-20T21:51:52.990Z,8.43
2022-10-20T21:54:23.763Z,8.77
2022-10-20T21:56:51.330Z,8.50
2022-10-20T21:59:21.423Z,8.63
2022-10-20T22:01:49.060Z,9.43
2022-10-20T22:04:18.000Z,9.50
2022-10-20T22:06:47.504Z,9.93
2022-10-20T22:09:17.929Z,9.63
2022-10-20T22:11:50.508Z,8.60
2022-10-20T22:14:22.144Z,9.73
2022-10-20T22:16:50.191Z,9.53
2022-10-20T22:19:20.983Z,9.80
2022-10-20T22:21:52.591Z,10.20
2022-10-20T22:24:23.155Z,9.90
2022-10-20T22:26:54.271Z,9.27
2022-10-20T22:29:24.775Z,10.27
2022-10-20T22:31:51.695Z,8.77
2022-10-20T22:34:18.674Z,10.10
2022-10-20T22:36:45.525Z,10.67
2022-10-20T22:41:48.328Z,10.60
2022-10-20T22:44:20.719Z,9.10
2022-10-20T22:46:48.026Z,9.70
2022-10-20T22:49:14.941Z,8.83
2022-10-20T22:51:41.797Z,9.77
2022-10-20T22:54:10.991Z,10.07
2022-10-20T22:56:37.817Z,9.03
2022-10-20T22:59:09.577Z,10.03
2022-10-20T23:01:36.443Z,9.70
2022-10-20T23:04:05.864Z,9.47
2022-10-20T23:06:32.762Z,9.13
2022-10-20T23:09:02.751Z,10.00
2022-10-20T23:11:30.163Z,10.60
2022-10-20T23:13:56.997Z,9.73
2022-10-20T23:16:26.113Z,10.97
2022-10-20T23:18:55.633Z,10.10
2022-10-20T23:21:26.445Z,9.90
2022-10-20T23:23:54.576Z,9.90
2022-10-20T23:26:21.455Z,11.03
2022-10-20T23:28:48.794Z,10.03
2022-10-20T23:31:19.513Z,11.33
2022-10-20T23:33:49.984Z,9.20
2022-10-20T23:36:17.275Z,9.87
2022-10-20T23:38:44.535Z,10.73
2022-10-20T23:41:14.618Z,10.30
2022-10-20T23:43:44.205Z,11.07
2022-10-20T23:46:13.999Z,10.40
2022-10-20T23:48:43.814Z,9.73
2022-10-20T23:51:14.189Z,10.53
2022-10-20T23:53:43.564Z,10.70
2022-10-20T23:56:14.879Z,10.17
2022-10-20T23:58:46.868Z,12.30
